sensor_id;sensor_type;location;lat;lon;timestamp;pressure;altitude;pressure_sealevel;temperature;humidity
22031;BME280;11179;52.106;21.024;2022-08-16T00:00:17;99750.19;;;21.61;71.32
22031;BME280;11179;52.106;21.024;2022-08-16T00:02:43;99738.78;;;21.54;71.32
22031;BME280;11179;52.106;21.024;2022-08-16T00:05:10;99740.75;;;21.53;71.39
22031;BME280;11179;52.106;21.024;2022-08-16T00:07:37;99737.31;;;21.48;71.65
22031;BME280;11179;52.106;21.024;2022-08-16T00:10:04;99745.81;;;21.39;71.69
22031;BME280;11179;52.106;21.024;2022-08-16T00:12:30;99754.53;;;21.37;71.98
22031;BME280;11179;52.106;21.024;2022-08-16T00:14:57;99739.97;;;21.32;72.23
22031;BME280;11179;52.106;21.024;2022-08-16T00:17:23;99735.66;;;21.34;72.02
22031;BME280;11179;52.106;21.024;2022-08-16T00:19:49;99741.13;;;21.31;72.23
22031;BME280;11179;52.106;21.024;2022-08-16T00:22:14;99745.09;;;21.30;72.44
22031;BME280;11179;52.106;21.024;2022-08-16T00:24:40;99752.28;;;21.31;72.23
22031;BME280;11179;52.106;21.024;2022-08-16T00:27:05;99755.56;;;21.33;72.54
22031;BME280;11179;52.106;21.024;2022-08-16T00:29:31;99758.81;;;21.35;72.68
22031;BME280;11179;52.106;21.024;2022-08-16T00:31:57;99754.53;;;21.37;72.49
22031;BME280;11179;52.106;21.024;2022-08-16T00:34:23;99763.38;;;21.39;72.55
22031;BME280;11179;52.106;21.024;2022-08-16T00:36:49;99759.78;;;21.39;72.75
22031;BME280;11179;52.106;21.024;2022-08-16T00:39:16;99759.44;;;21.40;72.65
22031;BME280;11179;52.106;21.024;2022-08-16T00:41:45;99764.88;;;21.37;72.43
22031;BME280;11179;52.106;21.024;2022-08-16T00:44:12;99765.56;;;21.34;72.64
22031;BME280;11179;52.106;21.024;2022-08-16T00:46:45;99766.16;;;21.27;72.71
22031;BME280;11179;52.106;21.024;2022-08-16T00:49:14;99767.66;;;21.25;72.99
22031;BME280;11179;52.106;21.024;2022-08-16T00:51:40;99768.81;;;21.24;73.08
22031;BME280;11179;52.106;21.024;2022-08-16T00:54:06;99778.34;;;21.23;73.00
22031;BME280;11179;52.106;21.024;2022-08-16T00:56:36;99770.63;;;21.20;72.86
22031;BME280;11179;52.106;21.024;2022-08-16T00:59:03;99770.16;;;21.18;73.12
22031;BME280;11179;52.106;21.024;2022-08-16T01:01:29;99761.78;;;21.18;73.00
22031;BME280;11179;52.106;21.024;2022-08-16T01:03:57;99763.09;;;21.20;72.92
22031;BME280;11179;52.106;21.024;2022-08-16T01:06:24;99766.00;;;21.24;72.90
22031;BME280;11179;52.106;21.024;2022-08-16T01:08:52;99762.06;;;21.25;73.23
22031;BME280;11179;52.106;21.024;2022-08-16T01:11:19;99762.41;;;21.23;72.99
22031;BME280;11179;52.106;21.024;2022-08-16T01:13:45;99764.72;;;21.21;73.26
22031;BME280;11179;52.106;21.024;2022-08-16T01:16:19;99761.78;;;21.18;73.34
22031;BME280;11179;52.106;21.024;2022-08-16T01:18:49;99766.94;;;21.16;72.95
22031;BME280;11179;52.106;21.024;2022-08-16T01:26:45;99745.81;;;21.06;73.03
22031;BME280;11179;52.106;21.024;2022-08-16T01:29:17;99744.56;;;21.03;73.23
22031;BME280;11179;52.106;21.024;2022-08-16T01:31:44;99741.75;;;21.03;72.73
22031;BME280;11179;52.106;21.024;2022-08-16T01:34:12;99743.25;;;21.01;72.17
22031;BME280;11179;52.106;21.024;2022-08-16T01:36:37;99732.78;;;20.98;72.10
22031;BME280;11179;52.106;21.024;2022-08-16T01:39:09;99719.84;;;20.93;71.84
22031;BME280;11179;52.106;21.024;2022-08-16T01:41:35;99729.38;;;20.92;71.73
22031;BME280;11179;52.106;21.024;2022-08-16T01:44:00;99731.25;;;20.88;71.33
22031;BME280;11179;52.106;21.024;2022-08-16T01:49:20;99721.91;;;20.84;71.96
22031;BME280;11179;52.106;21.024;2022-08-16T01:51:45;99718.16;;;20.80;71.83
22031;BME280;11179;52.106;21.024;2022-08-16T01:54:11;99718.84;;;20.77;71.83
22031;BME280;11179;52.106;21.024;2022-08-16T01:56:37;99717.88;;;20.73;71.57
22031;BME280;11179;52.106;21.024;2022-08-16T01:59:05;99714.63;;;20.71;71.53
22031;BME280;11179;52.106;21.024;2022-08-16T02:01:31;99714.81;;;20.66;71.82
22031;BME280;11179;52.106;21.024;2022-08-16T02:03:56;99716.34;;;20.63;71.86
22031;BME280;11179;52.106;21.024;2022-08-16T02:06:22;99717.81;;;20.61;71.98
22031;BME280;11179;52.106;21.024;2022-08-16T02:08:48;99711.78;;;20.59;72.13
22031;BME280;11179;52.106;21.024;2022-08-16T02:11:14;99700.47;;;20.55;72.07
22031;BME280;11179;52.106;21.024;2022-08-16T02:13:40;99695.91;;;20.51;72.22
22031;BME280;11179;52.106;21.024;2022-08-16T02:16:07;99699.41;;;20.48;72.27
22031;BME280;11179;52.106;21.024;2022-08-16T02:18:32;99697.63;;;20.43;72.38
22031;BME280;11179;52.106;21.024;2022-08-16T02:20:58;99706.31;;;20.42;72.40
22031;BME280;11179;52.106;21.024;2022-08-16T02:23:24;99717.00;;;20.39;72.61
22031;BME280;11179;52.106;21.024;2022-08-16T02:25:49;99711.41;;;20.39;72.60
22031;BME280;11179;52.106;21.024;2022-08-16T02:28:16;99708.50;;;20.36;72.85
22031;BME280;11179;52.106;21.024;2022-08-16T02:30:41;99712.78;;;20.33;72.85
22031;BME280;11179;52.106;21.024;2022-08-16T02:33:08;99713.66;;;20.25;72.76
22031;BME280;11179;52.106;21.024;2022-08-16T02:35:34;99710.88;;;20.25;72.91
22031;BME280;11179;52.106;21.024;2022-08-16T02:38:00;99711.34;;;20.27;72.91
22031;BME280;11179;52.106;21.024;2022-08-16T02:40:26;99706.81;;;20.23;72.88
22031;BME280;11179;52.106;21.024;2022-08-16T02:42:52;99707.97;;;20.22;72.42
22031;BME280;11179;52.106;21.024;2022-08-16T02:45:21;99716.66;;;20.20;72.57
22031;BME280;11179;52.106;21.024;2022-08-16T02:47:46;99712.09;;;20.16;72.63
22031;BME280;11179;52.106;21.024;2022-08-16T02:50:12;99709.16;;;20.12;72.49
22031;BME280;11179;52.106;21.024;2022-08-16T02:52:38;99711.50;;;20.10;72.52
22031;BME280;11179;52.106;21.024;2022-08-16T02:55:04;99721.00;;;20.09;72.43
22031;BME280;11179;52.106;21.024;2022-08-16T02:57:29;99717.72;;;20.07;73.03
22031;BME280;11179;52.106;21.024;2022-08-16T02:59:55;99711.66;;;20.05;72.97
22031;BME280;11179;52.106;21.024;2022-08-16T03:02:20;99716.09;;;20.06;73.52
22031;BME280;11179;52.106;21.024;2022-08-16T03:04:46;99710.53;;;20.06;73.81
22031;BME280;11179;52.106;21.024;2022-08-16T03:07:11;99709.38;;;20.07;74.00
22031;BME280;11179;52.106;21.024;2022-08-16T03:09:39;99711.94;;;20.12;73.84
22031;BME280;11179;52.106;21.024;2022-08-16T03:12:05;99713.78;;;20.08;74.07
22031;BME280;11179;52.106;21.024;2022-08-16T03:14:31;99713.47;;;20.10;74.03
22031;BME280;11179;52.106;21.024;2022-08-16T03:16:58;99711.34;;;20.07;74.22
22031;BME280;11179;52.106;21.024;2022-08-16T03:19:23;99717.41;;;20.09;73.99
22031;BME280;11179;52.106;21.024;2022-08-16T03:21:49;99711.00;;;20.08;74.17
22031;BME280;11179;52.106;21.024;2022-08-16T03:24:15;99712.16;;;20.07;74.07
22031;BME280;11179;52.106;21.024;2022-08-16T03:26:40;99720.19;;;20.09;74.04
22031;BME280;11179;52.106;21.024;2022-08-16T03:29:05;99720.84;;;20.06;74.17
22031;BME280;11179;52.106;21.024;2022-08-16T03:31:31;99718.72;;;20.02;74.13
22031;BME280;11179;52.106;21.024;2022-08-16T03:33:56;99719.06;;;20.01;74.23
22031;BME280;11179;52.106;21.024;2022-08-16T03:36:22;99713.50;;;20.01;74.26
22031;BME280;11179;52.106;21.024;2022-08-16T03:38:47;99708.88;;;20.05;74.26
22031;BME280;11179;52.106;21.024;2022-08-16T03:41:13;99710.53;;;20.06;74.23
22031;BME280;11179;52.106;21.024;2022-08-16T03:43:39;99712.16;;;20.07;74.44
22031;BME280;11179;52.106;21.024;2022-08-16T03:46:04;99714.59;;;20.09;74.66
22031;BME280;11179;52.106;21.024;2022-08-16T03:48:32;99719.63;;;20.15;74.46
22031;BME280;11179;52.106;21.024;2022-08-16T03:51:02;99722.22;;;20.20;74.36
22031;BME280;11179;52.106;21.024;2022-08-16T03:53:29;99734.47;;;20.28;74.47
22031;BME280;11179;52.106;21.024;2022-08-16T03:55:54;99737.25;;;20.28;74.17
22031;BME280;11179;52.106;21.024;2022-08-16T03:58:20;99740.53;;;20.30;73.94
22031;BME280;11179;52.106;21.024;2022-08-16T04:00:45;99732.31;;;20.33;74.14
22031;BME280;11179;52.106;21.024;2022-08-16T04:03:11;99746.19;;;20.42;73.92
22031;BME280;11179;52.106;21.024;2022-08-16T04:05:40;99741.91;;;20.45;73.76
22031;BME280;11179;52.106;21.024;2022-08-16T04:08:06;99750.13;;;20.41;73.86
22031;BME280;11179;52.106;21.024;2022-08-16T04:10:31;99751.41;;;20.44;73.85
22031;BME280;11179;52.106;21.024;2022-08-16T04:12:57;99748.63;;;20.44;73.88
22031;BME280;11179;52.106;21.024;2022-08-16T04:15:23;99741.56;;;20.46;73.81
22031;BME280;11179;52.106;21.024;2022-08-16T04:17:50;99743.47;;;20.54;73.52
22031;BME280;11179;52.106;21.024;2022-08-16T04:20:16;99746.19;;;20.63;73.50
22031;BME280;11179;52.106;21.024;2022-08-16T04:22:42;99747.13;;;20.67;73.24
22031;BME280;11179;52.106;21.024;2022-08-16T04:25:09;99741.69;;;20.70;73.13
22031;BME280;11179;52.106;21.024;2022-08-16T04:27:35;99741.00;;;20.73;73.26
22031;BME280;11179;52.106;21.024;2022-08-16T04:30:05;99737.06;;;20.74;73.06
22031;BME280;11179;52.106;21.024;2022-08-16T04:32:31;99747.03;;;20.84;73.05
22031;BME280;11179;52.106;21.024;2022-08-16T04:34:56;99751.34;;;20.94;72.73
22031;BME280;11179;52.106;21.024;2022-08-16T04:37:21;99750.00;;;21.00;72.92
22031;BME280;11179;52.106;21.024;2022-08-16T04:39:47;99755.72;;;21.03;72.67
22031;BME280;11179;52.106;21.024;2022-08-16T04:42:14;99756.09;;;21.14;72.20
22031;BME280;11179;52.106;21.024;2022-08-16T04:44:40;99750.03;;;21.12;72.27
22031;BME280;11179;52.106;21.024;2022-08-16T04:47:05;99753.06;;;21.19;72.01
22031;BME280;11179;52.106;21.024;2022-08-16T04:49:30;99758.25;;;21.29;72.03
22031;BME280;11179;52.106;21.024;2022-08-16T04:51:56;99761.75;;;21.38;71.90
22031;BME280;11179;52.106;21.024;2022-08-16T04:54:21;99762.56;;;21.39;71.36
22031;BME280;11179;52.106;21.024;2022-08-16T04:56:47;99756.97;;;21.39;71.54
22031;BME280;11179;52.106;21.024;2022-08-16T04:59:12;99765.94;;;21.44;71.16
22031;BME280;11179;52.106;21.024;2022-08-16T05:01:38;99764.44;;;21.47;71.17
22031;BME280;11179;52.106;21.024;2022-08-16T05:04:03;99771.06;;;21.42;71.08
22031;BME280;11179;52.106;21.024;2022-08-16T05:06:30;99762.22;;;21.40;70.78
22031;BME280;11179;52.106;21.024;2022-08-16T05:08:55;99778.22;;;21.52;70.75
22031;BME280;11179;52.106;21.024;2022-08-16T05:11:21;99769.38;;;21.62;70.77
22031;BME280;11179;52.106;21.024;2022-08-16T05:13:47;99781.28;;;21.71;70.39
22031;BME280;11179;52.106;21.024;2022-08-16T05:16:16;99781.19;;;21.80;69.99
22031;BME280;11179;52.106;21.024;2022-08-16T05:18:43;99777.59;;;21.92;70.14
22031;BME280;11179;52.106;21.024;2022-08-16T05:21:08;99778.41;;;22.04;69.81
22031;BME280;11179;52.106;21.024;2022-08-16T05:23:34;99780.59;;;21.99;69.74
22031;BME280;11179;52.106;21.024;2022-08-16T05:25:59;99781.75;;;21.98;69.55
22031;BME280;11179;52.106;21.024;2022-08-16T05:28:26;99773.16;;;22.03;69.04
22031;BME280;11179;52.106;21.024;2022-08-16T05:30:51;99775.25;;;22.06;69.08
22031;BME280;11179;52.106;21.024;2022-08-16T05:33:17;99776.97;;;22.10;68.52
22031;BME280;11179;52.106;21.024;2022-08-16T05:35:45;99775.72;;;22.08;68.37
22031;BME280;11179;52.106;21.024;2022-08-16T05:38:11;99775.94;;;22.03;68.53
22031;BME280;11179;52.106;21.024;2022-08-16T05:40:36;99778.06;;;21.94;68.78
22031;BME280;11179;52.106;21.024;2022-08-16T05:43:01;99783.16;;;21.92;68.61
22031;BME280;11179;52.106;21.024;2022-08-16T05:45:27;99789.66;;;21.84;68.78
22031;BME280;11179;52.106;21.024;2022-08-16T05:47:52;99786.78;;;21.80;68.99
22031;BME280;11179;52.106;21.024;2022-08-16T05:50:18;99783.16;;;21.79;69.21
22031;BME280;11179;52.106;21.024;2022-08-16T05:52:43;99792.56;;;21.75;69.28
22031;BME280;11179;52.106;21.024;2022-08-16T05:55:08;99776.50;;;21.84;68.76
22031;BME280;11179;52.106;21.024;2022-08-16T05:57:34;99779.69;;;21.95;68.94
22031;BME280;11179;52.106;21.024;2022-08-16T05:59:59;99788.28;;;21.90;68.88
22031;BME280;11179;52.106;21.024;2022-08-16T06:02:25;99776.91;;;21.95;68.92
22031;BME280;11179;52.106;21.024;2022-08-16T06:04:53;99779.44;;;22.00;68.66
22031;BME280;11179;52.106;21.024;2022-08-16T06:07:19;99778.97;;;21.98;68.59
22031;BME280;11179;52.106;21.024;2022-08-16T06:09:45;99772.47;;;21.94;68.43
22031;BME280;11179;52.106;21.024;2022-08-16T06:12:12;99774.44;;;22.17;68.37
22031;BME280;11179;52.106;21.024;2022-08-16T06:14:38;99775.66;;;22.69;67.65
22031;BME280;11179;52.106;21.024;2022-08-16T06:17:03;99777.91;;;22.91;66.94
22031;BME280;11179;52.106;21.024;2022-08-16T06:19:29;99775.25;;;22.95;66.25
22031;BME280;11179;52.106;21.024;2022-08-16T06:21:54;99774.19;;;22.99;66.16
22031;BME280;11179;52.106;21.024;2022-08-16T06:24:19;99777.47;;;23.01;65.52
22031;BME280;11179;52.106;21.024;2022-08-16T06:26:45;99779.09;;;23.02;65.42
22031;BME280;11179;52.106;21.024;2022-08-16T06:29:10;99773.50;;;23.02;65.47
22031;BME280;11179;52.106;21.024;2022-08-16T06:31:36;99766.41;;;23.20;65.04
22031;BME280;11179;52.106;21.024;2022-08-16T06:34:02;99768.44;;;23.36;64.86
22031;BME280;11179;52.106;21.024;2022-08-16T06:36:27;99770.63;;;23.42;64.57
22031;BME280;11179;52.106;21.024;2022-08-16T06:38:53;99768.88;;;23.38;63.69
22031;BME280;11179;52.106;21.024;2022-08-16T06:41:19;99775.13;;;23.47;63.32
22031;BME280;11179;52.106;21.024;2022-08-16T06:43:44;99772.44;;;23.50;63.41
22031;BME280;11179;52.106;21.024;2022-08-16T06:46:22;99779.03;;;23.58;62.79
22031;BME280;11179;52.106;21.024;2022-08-16T06:48:47;99776.81;;;23.64;62.78
22031;BME280;11179;52.106;21.024;2022-08-16T06:51:13;99781.97;;;23.77;62.80
22031;BME280;11179;52.106;21.024;2022-08-16T06:53:38;99785.41;;;23.86;62.48
22031;BME280;11179;52.106;21.024;2022-08-16T06:56:05;99775.97;;;24.10;62.21
22031;BME280;11179;52.106;21.024;2022-08-16T06:58:32;99779.59;;;24.26;61.51
22031;BME280;11179;52.106;21.024;2022-08-16T07:00:59;99778.50;;;24.47;60.58
22031;BME280;11179;52.106;21.024;2022-08-16T07:03:26;99778.34;;;24.75;59.90
22031;BME280;11179;52.106;21.024;2022-08-16T07:05:52;99785.91;;;25.28;59.08
22031;BME280;11179;52.106;21.024;2022-08-16T07:08:17;99770.03;;;26.05;57.71
22031;BME280;11179;52.106;21.024;2022-08-16T07:10:43;99779.38;;;26.88;56.43
22031;BME280;11179;52.106;21.024;2022-08-16T07:13:08;99769.16;;;27.43;55.56
22031;BME280;11179;52.106;21.024;2022-08-16T07:15:34;99775.84;;;27.65;54.74
22031;BME280;11179;52.106;21.024;2022-08-16T07:17:59;99773.47;;;28.11;53.69
22031;BME280;11179;52.106;21.024;2022-08-16T07:20:25;99779.47;;;28.57;51.62
22031;BME280;11179;52.106;21.024;2022-08-16T07:22:52;99772.44;;;28.33;51.55
22031;BME280;11179;52.106;21.024;2022-08-16T07:25:20;99776.69;;;28.64;51.12
22031;BME280;11179;52.106;21.024;2022-08-16T07:27:46;99777.63;;;28.90;50.40
22031;BME280;11179;52.106;21.024;2022-08-16T07:30:13;99779.03;;;29.28;48.74
22031;BME280;11179;52.106;21.024;2022-08-16T07:32:39;99772.66;;;29.70;48.25
22031;BME280;11179;52.106;21.024;2022-08-16T07:35:05;99769.47;;;30.03;47.77
22031;BME280;11179;52.106;21.024;2022-08-16T07:37:30;99763.41;;;30.33;47.66
22031;BME280;11179;52.106;21.024;2022-08-16T07:39:56;99762.53;;;30.75;47.00
22031;BME280;11179;52.106;21.024;2022-08-16T07:42:21;99766.88;;;31.05;46.57
22031;BME280;11179;52.106;21.024;2022-08-16T07:44:47;99765.19;;;31.18;45.85
22031;BME280;11179;52.106;21.024;2022-08-16T07:47:14;99763.44;;;31.49;44.80
22031;BME280;11179;52.106;21.024;2022-08-16T07:49:39;99765.03;;;31.53;44.19
22031;BME280;11179;52.106;21.024;2022-08-16T07:52:04;99772.34;;;31.51;43.95
22031;BME280;11179;52.106;21.024;2022-08-16T07:54:30;99767.06;;;31.49;43.63
22031;BME280;11179;52.106;21.024;2022-08-16T07:56:55;99770.03;;;31.21;43.96
22031;BME280;11179;52.106;21.024;2022-08-16T07:59:21;99761.94;;;31.23;44.06
22031;BME280;11179;52.106;21.024;2022-08-16T08:01:47;99768.03;;;31.18;45.04
22031;BME280;11179;52.106;21.024;2022-08-16T08:04:13;99764.31;;;31.35;44.44
22031;BME280;11179;52.106;21.024;2022-08-16T08:06:39;99762.69;;;31.34;44.23
22031;BME280;11179;52.106;21.024;2022-08-16T08:09:05;99767.97;;;31.32;44.08
22031;BME280;11179;52.106;21.024;2022-08-16T08:11:31;99763.00;;;31.54;44.21
22031;BME280;11179;52.106;21.024;2022-08-16T08:13:57;99769.81;;;31.67;43.50
22031;BME280;11179;52.106;21.024;2022-08-16T08:16:24;99773.06;;;31.62;42.93
22031;BME280;11179;52.106;21.024;2022-08-16T08:18:50;99768.28;;;31.48;43.45
22031;BME280;11179;52.106;21.024;2022-08-16T08:21:15;99775.72;;;31.28;43.45
22031;BME280;11179;52.106;21.024;2022-08-16T08:23:44;99775.34;;;31.12;43.20
22031;BME280;11179;52.106;21.024;2022-08-16T08:26:11;99777.44;;;30.97;43.82
22031;BME280;11179;52.106;21.024;2022-08-16T08:28:36;99776.63;;;30.97;43.57
22031;BME280;11179;52.106;21.024;2022-08-16T08:31:02;99765.28;;;30.93;43.52
22031;BME280;11179;52.106;21.024;2022-08-16T08:33:29;99768.53;;;30.99;42.94
22031;BME280;11179;52.106;21.024;2022-08-16T08:35:57;99770.19;;;30.78;42.94
22031;BME280;11179;52.106;21.024;2022-08-16T08:38:22;99785.66;;;30.38;43.66
22031;BME280;11179;52.106;21.024;2022-08-16T08:40:47;99784.03;;;30.02;44.20
22031;BME280;11179;52.106;21.024;2022-08-16T08:43:13;99786.84;;;29.77;44.86
22031;BME280;11179;52.106;21.024;2022-08-16T08:45:39;99800.94;;;29.56;45.61
22031;BME280;11179;52.106;21.024;2022-08-16T08:48:05;99794.38;;;29.34;46.49
22031;BME280;11179;52.106;21.024;2022-08-16T08:50:30;99800.91;;;29.48;46.16
22031;BME280;11179;52.106;21.024;2022-08-16T08:52:56;99788.25;;;29.10;46.15
22031;BME280;11179;52.106;21.024;2022-08-16T08:55:22;99793.84;;;29.00;45.93
22031;BME280;11179;52.106;21.024;2022-08-16T08:57:48;99798.66;;;29.03;46.31
22031;BME280;11179;52.106;21.024;2022-08-16T09:00:17;99803.75;;;29.59;45.93
22031;BME280;11179;52.106;21.024;2022-08-16T09:02:43;99803.44;;;29.89;45.00
22031;BME280;11179;52.106;21.024;2022-08-16T09:05:09;99806.59;;;29.63;44.12
22031;BME280;11179;52.106;21.024;2022-08-16T09:07:35;99803.00;;;29.87;44.54
22031;BME280;11179;52.106;21.024;2022-08-16T09:10:03;99795.75;;;30.50;43.85
22031;BME280;11179;52.106;21.024;2022-08-16T09:12:29;99798.09;;;30.90;43.06
22031;BME280;11179;52.106;21.024;2022-08-16T09:14:54;99796.13;;;30.70;42.98
22031;BME280;11179;52.106;21.024;2022-08-16T09:17:20;99801.03;;;30.48;43.50
22031;BME280;11179;52.106;21.024;2022-08-16T09:19:45;99797.78;;;30.17;43.92
22031;BME280;11179;52.106;21.024;2022-08-16T09:22:11;99808.19;;;29.57;45.15
22031;BME280;11179;52.106;21.024;2022-08-16T09:24:37;99801.28;;;29.43;45.35
22031;BME280;11179;52.106;21.024;2022-08-16T09:27:03;99810.53;;;29.26;46.04
22031;BME280;11179;52.106;21.024;2022-08-16T09:29:29;99810.81;;;29.07;46.18
22031;BME280;11179;52.106;21.024;2022-08-16T09:31:55;99809.94;;;28.92;46.37
22031;BME280;11179;52.106;21.024;2022-08-16T09:34:22;99805.41;;;28.73;46.98
22031;BME280;11179;52.106;21.024;2022-08-16T09:36:47;99800.84;;;28.55;47.79
22031;BME280;11179;52.106;21.024;2022-08-16T09:39:14;99801.09;;;28.39;47.81
22031;BME280;11179;52.106;21.024;2022-08-16T09:41:39;99810.88;;;28.48;48.12
22031;BME280;11179;52.106;21.024;2022-08-16T09:44:05;99798.81;;;28.55;47.69
22031;BME280;11179;52.106;21.024;2022-08-16T09:46:31;99810.13;;;28.55;47.96
22031;BME280;11179;52.106;21.024;2022-08-16T09:48:56;99812.41;;;28.42;47.94
22031;BME280;11179;52.106;21.024;2022-08-16T09:51:23;99815.59;;;28.37;48.04
22031;BME280;11179;52.106;21.024;2022-08-16T09:53:51;99810.75;;;28.34;48.17
22031;BME280;11179;52.106;21.024;2022-08-16T09:56:31;99817.59;;;28.37;48.43
22031;BME280;11179;52.106;21.024;2022-08-16T09:58:59;99810.94;;;28.56;47.96
22031;BME280;11179;52.106;21.024;2022-08-16T10:01:24;99827.97;;;28.70;47.67
22031;BME280;11179;52.106;21.024;2022-08-16T10:03:51;99821.75;;;28.46;46.94
22031;BME280;11179;52.106;21.024;2022-08-16T10:06:18;99829.69;;;28.30;47.13
22031;BME280;11179;52.106;21.024;2022-08-16T10:08:44;99829.59;;;28.23;47.46
22031;BME280;11179;52.106;21.024;2022-08-16T10:11:10;99827.66;;;28.31;47.80
22031;BME280;11179;52.106;21.024;2022-08-16T10:13:54;99836.53;;;28.29;47.77
22031;BME280;11179;52.106;21.024;2022-08-16T10:16:20;99835.66;;;28.22;47.83
22031;BME280;11179;52.106;21.024;2022-08-16T10:18:46;99834.81;;;28.18;47.89
22031;BME280;11179;52.106;21.024;2022-08-16T10:21:11;99839.56;;;28.06;48.13
22031;BME280;11179;52.106;21.024;2022-08-16T10:23:39;99839.06;;;27.97;48.23
22031;BME280;11179;52.106;21.024;2022-08-16T10:26:05;99843.31;;;27.81;48.57
22031;BME280;11179;52.106;21.024;2022-08-16T10:28:31;99846.13;;;27.84;48.39
22031;BME280;11179;52.106;21.024;2022-08-16T10:30:58;99844.50;;;27.83;48.92
22031;BME280;11179;52.106;21.024;2022-08-16T10:33:24;99837.00;;;27.94;48.67
22031;BME280;11179;52.106;21.024;2022-08-16T10:35:51;99843.84;;;27.93;48.95
22031;BME280;11179;52.106;21.024;2022-08-16T10:38:16;99846.19;;;27.88;48.90
22031;BME280;11179;52.106;21.024;2022-08-16T10:40:42;99840.88;;;27.79;49.49
22031;BME280;11179;52.106;21.024;2022-08-16T10:43:07;99841.56;;;27.69;49.57
22031;BME280;11179;52.106;21.024;2022-08-16T10:45:33;99841.06;;;27.60;49.53
22031;BME280;11179;52.106;21.024;2022-08-16T10:47:59;99852.75;;;27.62;49.86
22031;BME280;11179;52.106;21.024;2022-08-16T10:50:25;99850.81;;;27.66;50.08
22031;BME280;11179;52.106;21.024;2022-08-16T10:52:51;99854.13;;;27.75;50.37
22031;BME280;11179;52.106;21.024;2022-08-16T10:55:18;99861.59;;;27.60;50.31
22031;BME280;11179;52.106;21.024;2022-08-16T10:57:43;99863.97;;;27.55;50.94
22031;BME280;11179;52.106;21.024;2022-08-16T11:00:11;99855.09;;;27.56;51.36
22031;BME280;11179;52.106;21.024;2022-08-16T11:02:39;99865.81;;;27.77;51.29
22031;BME280;11179;52.106;21.024;2022-08-16T11:05:07;99863.78;;;27.74;50.62
22031;BME280;11179;52.106;21.024;2022-08-16T11:07:41;99868.56;;;27.70;50.52
22031;BME280;11179;52.106;21.024;2022-08-16T11:10:08;99868.16;;;27.71;50.53
22031;BME280;11179;52.106;21.024;2022-08-16T11:12:34;99867.09;;;27.83;50.13
22031;BME280;11179;52.106;21.024;2022-08-16T11:14:59;99868.31;;;27.86;50.03
22031;BME280;11179;52.106;21.024;2022-08-16T11:17:25;99866.44;;;27.60;49.81
22031;BME280;11179;52.106;21.024;2022-08-16T11:19:51;99877.22;;;27.51;50.26
22031;BME280;11179;52.106;21.024;2022-08-16T11:22:16;99873.56;;;27.20;50.29
22031;BME280;11179;52.106;21.024;2022-08-16T11:24:44;99877.06;;;27.10;50.48
22031;BME280;11179;52.106;21.024;2022-08-16T11:27:19;99875.50;;;27.13;50.91
22031;BME280;11179;52.106;21.024;2022-08-16T11:29:44;99875.69;;;27.27;50.36
22031;BME280;11179;52.106;21.024;2022-08-16T11:32:10;99882.03;;;27.20;50.06
22031;BME280;11179;52.106;21.024;2022-08-16T11:34:35;99876.75;;;27.19;50.06
22031;BME280;11179;52.106;21.024;2022-08-16T11:37:02;99880.16;;;27.01;50.67
22031;BME280;11179;52.106;21.024;2022-08-16T11:39:28;99871.31;;;27.03;51.20
22031;BME280;11179;52.106;21.024;2022-08-16T11:41:55;99877.34;;;27.01;51.44
22031;BME280;11179;52.106;21.024;2022-08-16T11:44:20;99876.69;;;27.12;51.26
22031;BME280;11179;52.106;21.024;2022-08-16T11:46:45;99879.44;;;27.08;51.22
22031;BME280;11179;52.106;21.024;2022-08-16T11:49:11;99863.50;;;26.89;51.82
22031;BME280;11179;52.106;21.024;2022-08-16T11:51:36;99875.91;;;26.85;52.35
22031;BME280;11179;52.106;21.024;2022-08-16T11:54:03;99878.38;;;26.90;52.61
22031;BME280;11179;52.106;21.024;2022-08-16T11:56:29;99869.75;;;27.05;52.71
22031;BME280;11179;52.106;21.024;2022-08-16T11:58:54;99870.84;;;27.27;52.18
22031;BME280;11179;52.106;21.024;2022-08-16T12:01:20;99865.13;;;27.50;51.89
22031;BME280;11179;52.106;21.024;2022-08-16T12:03:45;99862.84;;;27.63;52.06
22031;BME280;11179;52.106;21.024;2022-08-16T12:06:15;99865.50;;;27.86;52.13
22031;BME280;11179;52.106;21.024;2022-08-16T12:08:43;99863.59;;;27.93;51.42
22031;BME280;11179;52.106;21.024;2022-08-16T12:11:10;99864.44;;;27.97;50.88
22031;BME280;11179;52.106;21.024;2022-08-16T12:13:35;99851.66;;;28.07;51.05
22031;BME280;11179;52.106;21.024;2022-08-16T12:16:01;99850.91;;;28.13;51.05
22031;BME280;11179;52.106;21.024;2022-08-16T12:18:28;99849.75;;;28.18;50.76
22031;BME280;11179;52.106;21.024;2022-08-16T12:20:53;99839.47;;;27.99;50.52
22031;BME280;11179;52.106;21.024;2022-08-16T12:23:19;99843.91;;;27.63;51.01
22031;BME280;11179;52.106;21.024;2022-08-16T12:25:44;99838.22;;;27.60;50.89
22031;BME280;11179;52.106;21.024;2022-08-16T12:28:10;99836.59;;;27.59;50.88
22031;BME280;11179;52.106;21.024;2022-08-16T12:30:39;99833.34;;;27.53;51.29
22031;BME280;11179;52.106;21.024;2022-08-16T12:33:08;99835.53;;;27.37;51.60
22031;BME280;11179;52.106;21.024;2022-08-16T12:35:36;99836.88;;;27.17;51.85
22031;BME280;11179;52.106;21.024;2022-08-16T12:38:04;99830.22;;;26.98;51.97
22031;BME280;11179;52.106;21.024;2022-08-16T12:40:33;99831.25;;;26.87;52.25
22031;BME280;11179;52.106;21.024;2022-08-16T12:43:00;99835.91;;;27.02;52.17
22031;BME280;11179;52.106;21.024;2022-08-16T12:45:29;99836.03;;;27.13;52.61
22031;BME280;11179;52.106;21.024;2022-08-16T12:47:56;99830.88;;;26.88;53.32
22031;BME280;11179;52.106;21.024;2022-08-16T12:50:39;99826.47;;;26.64;54.62
22031;BME280;11179;52.106;21.024;2022-08-16T12:53:05;99826.44;;;26.61;55.20